Time;durP1;ratioP1;P1;durP2;ratioP2;P2;SDS_P1;SDS_P2;PMS_P1;PMS_P2;Temp;Humidity;BMP_temperature;BMP_pressure;BME280_temperature;BME280_humidity;BME280_pressure;Samples;Min_cycle;Max_cycle;Signal;HPM_P1;HPM_P2
2023/05/24 00:00:18;;;;;;;7.30;6.57;;;;;;;15.45;79.33;96749.09;5008171;28;20670;-74
2023/05/24 00:02:45;;;;;;;9.03;7.23;;;;;;;15.59;79.21;96753.31;5010288;28;20282;-72
2023/05/24 00:05:15;;;;;;;8.20;7.20;;;;;;;15.61;78.37;96723.56;5010225;28;20191;-71
2023/05/24 00:07:42;;;;;;;8.60;6.70;;;;;;;15.99;77.45;96754.81;5009403;28;20191;-72
2023/05/24 00:10:10;;;;;;;11.30;6.53;;;;;;;16.10;76.55;96753.06;5010495;28;20295;-75
2023/05/24 00:12:37;;;;;;;8.50;6.53;;;;;;;16.23;76.71;96746.03;5009138;28;20199;-73
2023/05/24 00:15:05;;;;;;;10.73;7.30;;;;;;;16.16;76.54;96741.34;5010375;28;20644;-73
2023/05/24 00:17:39;;;;;;;8.53;6.07;;;;;;;15.89;76.72;96746.78;5007863;28;20724;-75
2023/05/24 00:20:10;;;;;;;9.03;7.07;;;;;;;15.53;78.22;96741.56;5007291;28;20847;-76
2023/05/24 00:23:17;;;;;;;11.23;7.47;;;;;;;15.54;79.28;96739.78;5010078;28;20191;-76
2023/05/24 00:26:37;;;;;;;8.63;7.70;;;;;;;15.83;77.82;96720.25;5006946;28;20702;-76
2023/05/24 00:29:58;;;;;;;10.83;7.80;;;;;;;15.98;77.41;96738.28;5008963;28;20196;-73
2023/05/24 00:33:22;;;;;;;11.23;8.10;;;;;;;15.74;78.36;96739.22;5009598;28;20203;-72
2023/05/24 00:36:43;;;;;;;9.03;6.80;;;;;;;15.34;79.15;96735.91;5009349;28;20236;-71
2023/05/24 00:40:05;;;;;;;9.63;7.13;;;;;;;15.02;80.21;96735.50;5008644;28;20196;-74
2023/05/24 00:43:26;;;;;;;10.53;7.47;;;;;;;15.33;78.72;96740.28;5006348;28;20199;-76
2023/05/24 00:46:39;;;;;;;8.37;6.73;;;;;;;15.44;77.98;96732.59;5007838;28;20200;-72
2023/05/24 00:49:59;;;;;;;11.43;6.87;;;;;;;15.58;77.62;96730.78;5008089;28;20199;-75
2023/05/24 00:53:20;;;;;;;7.73;6.87;;;;;;;15.57;77.10;96737.78;5008804;28;20199;-75
2023/05/24 00:56:41;;;;;;;13.30;7.13;;;;;;;15.68;76.24;96740.47;5007617;28;20242;-73
2023/05/24 01:00:04;;;;;;;9.83;7.00;;;;;;;15.58;77.00;96728.19;5008638;28;20265;-72
2023/05/24 01:03:29;;;;;;;9.20;6.87;;;;;;;15.62;76.65;96735.66;5009076;28;20204;-71
2023/05/24 01:06:50;;;;;;;9.93;7.67;;;;;;;15.34;77.54;96730.69;5008914;28;20195;-72
2023/05/24 01:09:33;;;;;;;8.30;6.57;;;;;;;15.38;77.40;96732.97;5006250;28;20295;-72
2023/05/24 01:13:12;;;;;;;9.33;6.53;;;;;;;15.29;77.35;96723.16;5008536;28;20733;-73
2023/05/24 01:16:45;;;;;;;8.23;6.00;;;;;;;15.22;77.03;96731.53;4966905;28;20802;-74
2023/05/24 01:19:35;;;;;;;7.47;6.40;;;;;;;15.20;77.59;96723.81;4967758;28;20323;-75
2023/05/24 01:22:57;;;;;;;8.97;6.43;;;;;;;15.15;77.52;96725.06;5007801;28;20281;-71
2023/05/24 01:26:03;;;;;;;7.90;6.33;;;;;;;15.10;77.45;96732.38;5006042;28;20722;-72
2023/05/24 01:29:24;;;;;;;7.97;6.70;;;;;;;14.63;79.47;96722.56;5008680;28;20238;-76
2023/05/24 01:32:45;;;;;;;9.07;6.87;;;;;;;14.63;79.76;96727.78;5006017;28;20199;-74
2023/05/24 01:36:05;;;;;;;9.77;7.60;;;;;;;14.83;79.23;96739.47;5005320;28;20226;-74
2023/05/24 01:39:26;;;;;;;8.80;7.07;;;;;;;14.39;79.71;96687.69;5007530;28;20246;-74
2023/05/24 01:42:45;;;;;;;9.10;6.80;;;;;;;14.68;79.96;96741.31;5006344;28;20600;-74
2023/05/24 01:45:58;;;;;;;9.83;6.67;;;;;;;14.60;79.25;96739.25;4946894;29;20249;-75
2023/05/24 01:49:38;;;;;;;10.67;6.87;;;;;;;14.63;79.56;96739.03;5007412;28;20285;-69
2023/05/24 01:52:59;;;;;;;8.43;7.00;;;;;;;14.42;80.67;96735.25;5005799;28;20268;-69
2023/05/24 01:56:20;;;;;;;8.40;7.03;;;;;;;14.42;80.40;96729.19;5005518;28;20238;-74
2023/05/24 01:59:41;;;;;;;9.00;7.20;;;;;;;14.26;81.09;96726.72;5006194;28;20206;-74
2023/05/24 02:03:03;;;;;;;9.13;6.80;;;;;;;14.37;80.41;96726.88;5007886;28;20258;-70
2023/05/24 02:06:26;;;;;;;8.70;7.27;;;;;;;13.90;82.55;96726.50;5007038;28;20290;-70
2023/05/24 02:09:47;;;;;;;12.63;7.50;;;;;;;13.82;83.77;96723.56;5006950;28;20202;-70
2023/05/24 02:13:15;;;;;;;8.87;6.57;;;;;;;14.12;82.10;96729.38;5007789;28;20218;-70
2023/05/24 02:16:41;;;;;;;7.57;6.47;;;;;;;14.42;81.65;96740.47;5005858;28;20690;-70
2023/05/24 02:20:02;;;;;;;9.53;7.50;;;;;;;14.46;80.60;96734.13;4989319;28;20199;-69
2023/05/24 02:23:23;;;;;;;8.73;6.80;;;;;;;14.22;80.82;96743.47;5006520;28;20284;-71
2023/05/24 02:26:44;;;;;;;7.40;6.60;;;;;;;14.41;80.19;96730.97;5004957;28;20199;-69
2023/05/24 02:30:04;;;;;;;10.20;7.07;;;;;;;14.50;79.94;96742.56;5007791;28;20676;-76
2023/05/24 02:33:25;;;;;;;9.40;6.67;;;;;;;14.38;80.27;96743.38;5007455;28;20229;-75
2023/05/24 02:36:46;;;;;;;9.57;6.97;;;;;;;14.47;79.51;96740.13;5004556;28;20226;-72
2023/05/24 02:40:07;;;;;;;8.77;6.30;;;;;;;14.60;79.04;96746.22;5004242;28;20234;-70
2023/05/24 02:43:27;;;;;;;11.70;6.90;;;;;;;14.85;78.30;96735.84;5006489;28;20203;-70
2023/05/24 02:46:48;;;;;;;9.40;6.33;;;;;;;14.85;76.96;96740.19;5005614;28;20191;-70
2023/05/24 02:50:09;;;;;;;9.13;6.20;;;;;;;14.78;76.74;96749.34;5005142;28;20213;-70
2023/05/24 02:53:30;;;;;;;9.07;6.47;;;;;;;14.46;78.46;96757.56;5004131;28;20202;-70
2023/05/24 02:56:52;;;;;;;8.03;5.77;;;;;;;14.26;77.75;96749.34;5005238;28;20239;-70
2023/05/24 03:00:13;;;;;;;7.20;6.17;;;;;;;14.32;79.00;96757.59;5006207;28;20547;-72
2023/05/24 03:03:33;;;;;;;7.53;6.00;;;;;;;14.44;77.97;96756.84;5005195;28;20261;-71
2023/05/24 03:06:54;;;;;;;8.23;6.23;;;;;;;14.54;78.17;96763.09;5006273;28;20199;-72
2023/05/24 03:10:15;;;;;;;11.07;6.47;;;;;;;14.65;77.49;96754.59;5004401;28;20196;-71
2023/05/24 03:13:35;;;;;;;8.93;6.17;;;;;;;14.85;77.19;96763.66;5006930;28;20211;-73
2023/05/24 03:16:56;;;;;;;13.63;8.33;;;;;;;14.84;76.70;96762.00;4995569;28;20669;-71
2023/05/24 03:20:19;;;;;;;9.13;6.57;;;;;;;14.86;76.85;96766.16;4970662;28;20207;-75
2023/05/24 03:23:40;;;;;;;7.90;6.20;;;;;;;14.88;76.55;96753.84;4970327;28;20201;-74
2023/05/24 03:27:01;;;;;;;10.03;6.50;;;;;;;14.92;76.39;96759.72;4985855;28;20215;-74
2023/05/24 03:30:22;;;;;;;10.43;6.70;;;;;;;15.02;76.54;96765.97;4986339;28;20250;-76
2023/05/24 03:33:57;;;;;;;10.33;6.40;;;;;;;15.07;76.56;96763.88;4985366;28;20295;-71
2023/05/24 03:37:19;;;;;;;8.63;5.93;;;;;;;15.19;76.49;96773.47;4984641;28;20623;-77
2023/05/24 03:40:40;;;;;;;7.03;6.17;;;;;;;15.44;75.40;96776.09;4984933;28;20581;-75
2023/05/24 03:44:00;;;;;;;7.90;6.73;;;;;;;15.77;74.41;96770.31;4987406;28;20253;-76
2023/05/24 03:47:21;;;;;;;11.73;6.40;;;;;;;15.94;73.18;96773.41;4969831;28;20200;-76
2023/05/24 03:50:42;;;;;;;9.43;6.27;;;;;;;16.48;71.53;96767.75;4985331;28;20600;-76
2023/05/24 03:54:02;;;;;;;20.10;9.00;;;;;;;17.12;69.50;96755.94;4984701;28;20219;-75
2023/05/24 03:57:23;;;;;;;8.43;6.97;;;;;;;17.40;68.81;96786.91;4988860;28;20326;-71
2023/05/24 04:00:44;;;;;;;7.97;6.43;;;;;;;17.34;67.82;96788.22;4989568;28;20243;-75
2023/05/24 04:04:05;;;;;;;7.80;6.83;;;;;;;17.85;66.43;96778.13;4990337;28;20200;-75
2023/05/24 04:07:25;;;;;;;7.87;5.97;;;;;;;17.75;65.92;96788.50;4988168;28;20285;-72
2023/05/24 04:10:46;;;;;;;11.97;6.37;;;;;;;17.59;66.95;96795.88;4973639;28;20737;-77
2023/05/24 04:14:07;;;;;;;10.23;6.47;;;;;;;17.98;66.23;96801.56;4989274;28;20702;-77
2023/05/24 04:17:31;;;;;;;8.10;5.93;;;;;;;17.75;66.80;96798.13;4990430;28;20210;-70
2023/05/24 04:20:52;;;;;;;6.30;5.70;;;;;;;17.68;66.90;96800.41;4989505;28;20577;-74
2023/05/24 04:24:12;;;;;;;6.73;6.03;;;;;;;17.50;67.27;96796.59;4981874;28;20212;-71
2023/05/24 04:27:35;;;;;;;10.43;5.80;;;;;;;17.66;67.57;96810.16;5005024;28;20213;-74
2023/05/24 04:30:56;;;;;;;7.80;6.20;;;;;;;17.56;67.63;96800.50;5005085;28;20240;-73
2023/05/24 04:34:21;;;;;;;6.97;5.77;;;;;;;17.97;66.83;96799.91;5011678;28;20197;-74
2023/05/24 04:37:42;;;;;;;9.87;5.80;;;;;;;18.50;64.59;96796.50;5016403;28;20234;-75
2023/05/24 04:41:03;;;;;;;10.23;6.60;;;;;;;18.00;65.81;96805.75;4998165;28;20578;-72
2023/05/24 04:44:24;;;;;;;10.00;5.73;;;;;;;18.11;65.96;96804.91;5005644;28;20592;-72
2023/05/24 04:47:45;;;;;;;7.90;6.20;;;;;;;18.40;64.95;96809.47;5000271;28;20208;-70
2023/05/24 04:51:05;;;;;;;9.77;5.97;;;;;;;17.66;68.28;96810.16;4999640;28;20212;-70
2023/05/24 04:54:26;;;;;;;7.37;6.40;;;;;;;17.81;68.12;96811.59;4999115;28;20202;-74
2023/05/24 04:57:47;;;;;;;8.60;5.57;;;;;;;18.25;66.77;96794.97;4999641;28;20288;-73
2023/05/24 05:01:07;;;;;;;6.37;5.53;;;;;;;18.59;65.05;96803.59;5009023;28;20230;-71
2023/05/24 05:04:28;;;;;;;8.00;6.87;;;;;;;19.22;63.48;96803.53;5008260;28;20241;-74
2023/05/24 05:07:49;;;;;;;16.40;6.23;;;;;;;19.49;61.80;96805.66;5006815;28;20208;-71
2023/05/24 05:11:09;;;;;;;9.70;5.27;;;;;;;19.54;60.68;96803.47;5007916;28;20202;-71
2023/05/24 05:14:30;;;;;;;9.83;4.57;;;;;;;20.18;58.01;96814.50;5008651;28;20202;-71
2023/05/24 05:17:51;;;;;;;8.73;5.23;;;;;;;20.35;58.00;96806.00;5008753;28;20280;-73
2023/05/24 05:21:13;;;;;;;6.83;5.13;;;;;;;20.36;58.34;96812.09;5005494;28;20294;-72
2023/05/24 05:24:33;;;;;;;14.40;5.10;;;;;;;20.44;57.39;96815.72;5006157;28;20289;-72
2023/05/24 05:27:54;;;;;;;6.23;4.60;;;;;;;20.26;57.54;96819.94;5006224;28;20286;-74
2023/05/24 05:31:15;;;;;;;7.27;5.10;;;;;;;20.26;58.15;96817.31;4990538;28;20673;-72
2023/05/24 05:34:35;;;;;;;7.07;4.33;;;;;;;20.46;57.99;96824.31;5007593;28;20233;-72
2023/05/24 05:37:51;;;;;;;7.87;4.63;;;;;;;20.58;57.08;96822.38;5009190;28;20774;-75
2023/05/24 05:40:18;;;;;;;7.27;4.77;;;;;;;20.65;56.95;96802.47;4993609;28;20194;-76
2023/05/24 05:42:46;;;;;;;8.60;4.77;;;;;;;20.88;57.30;96820.47;5008732;28;20199;-76
2023/05/24 05:45:13;;;;;;;8.70;4.50;;;;;;;20.91;56.84;96819.34;5022255;28;20227;-75
2023/05/24 05:47:40;;;;;;;8.80;4.87;;;;;;;21.18;56.02;96808.13;5007898;28;20605;-74
2023/05/24 05:50:08;;;;;;;8.50;4.87;;;;;;;20.93;56.29;96823.53;5006593;28;20199;-73
2023/05/24 05:52:35;;;;;;;5.87;4.97;;;;;;;21.25;57.05;96819.75;5006354;28;20294;-76
2023/05/24 05:55:02;;;;;;;8.33;7.43;;;;;;;21.38;56.28;96828.22;5006023;28;20243;-75
2023/05/24 05:57:29;;;;;;;9.00;5.10;;;;;;;21.44;56.45;96827.63;5022363;28;20675;-73
2023/05/24 05:59:56;;;;;;;6.90;4.20;;;;;;;21.17;55.48;96830.16;5006561;28;20223;-72
2023/05/24 06:02:23;;;;;;;5.97;4.40;;;;;;;21.31;56.17;96827.94;5002761;28;20207;-72
2023/05/24 06:04:51;;;;;;;9.23;5.07;;;;;;;21.19;56.71;96822.97;4997623;28;20262;-69
2023/05/24 06:07:20;;;;;;;6.80;4.63;;;;;;;21.52;56.17;96833.88;4996348;28;20207;-75
2023/05/24 06:09:47;;;;;;;6.13;4.53;;;;;;;21.50;55.35;96834.97;4994757;28;20287;-73
2023/05/24 06:12:14;;;;;;;9.83;4.50;;;;;;;21.25;55.86;96838.19;4995628;28;20195;-73
2023/05/24 06:14:42;;;;;;;5.00;4.50;;;;;;;21.46;55.25;96833.59;4996070;28;20196;-73
2023/05/24 06:17:10;;;;;;;4.67;3.80;;;;;;;21.42;54.92;96832.22;5010560;28;20217;-71
2023/05/24 06:19:37;;;;;;;7.83;4.10;;;;;;;21.35;55.18;96833.78;4997062;28;20224;-76
2023/05/24 06:22:04;;;;;;;5.00;3.77;;;;;;;21.42;55.22;96835.69;5011960;28;20337;-74
2023/05/24 06:24:33;;;;;;;14.93;4.47;;;;;;;21.81;55.91;96832.00;5011830;28;20192;-71
2023/05/24 06:27:00;;;;;;;7.40;4.27;;;;;;;21.68;55.18;96830.63;4998323;28;20644;-72
2023/05/24 06:29:31;;;;;;;5.67;4.10;;;;;;;21.51;56.17;96834.84;5017800;28;20270;-71
2023/05/24 06:31:58;;;;;;;9.90;4.53;;;;;;;21.58;56.08;96814.00;5007122;28;20711;-70
2023/05/24 06:34:26;;;;;;;5.20;4.70;;;;;;;21.99;55.59;96833.91;5004543;28;20291;-73
2023/05/24 06:36:53;;;;;;;9.83;4.13;;;;;;;22.00;54.96;96828.47;5006604;28;20220;-72
2023/05/24 06:39:20;;;;;;;4.70;3.97;;;;;;;22.00;53.66;96832.91;5006508;28;20235;-72
2023/05/24 06:41:50;;;;;;;5.67;4.27;;;;;;;22.40;54.44;96836.88;5020958;28;20230;-72
2023/05/24 06:44:30;;;;;;;7.20;4.90;;;;;;;22.32;54.13;96835.94;5012788;28;20197;-71
2023/05/24 06:46:58;;;;;;;5.83;4.63;;;;;;;22.46;54.23;96833.63;4984714;28;20205;-73
2023/05/24 06:49:26;;;;;;;7.07;5.13;;;;;;;22.38;55.51;96833.53;5002136;28;20304;-73
2023/05/24 06:51:53;;;;;;;6.43;4.30;;;;;;;22.57;54.95;96820.25;5001363;28;20221;-73
2023/05/24 06:54:20;;;;;;;5.27;4.07;;;;;;;22.75;54.44;96827.38;4985259;28;20299;-71
2023/05/24 06:56:47;;;;;;;4.63;3.90;;;;;;;22.70;54.52;96827.00;4986477;28;20327;-72
2023/05/24 06:59:15;;;;;;;4.53;3.90;;;;;;;22.48;54.89;96821.13;4984657;28;20261;-71
2023/05/24 07:01:42;;;;;;;6.00;3.67;;;;;;;22.51;54.97;96831.41;4987397;28;20280;-71
2023/05/24 07:04:10;;;;;;;6.30;3.93;;;;;;;22.66;54.45;96821.19;4984365;28;20273;-73
2023/05/24 07:06:38;;;;;;;7.93;5.27;;;;;;;22.87;54.69;96827.03;5000532;28;20210;-71
2023/05/24 07:09:05;;;;;;;6.60;4.90;;;;;;;23.01;54.07;96815.06;4970801;28;20229;-72
2023/05/24 07:11:32;;;;;;;6.93;4.40;;;;;;;23.30;53.56;96799.78;5006052;28;20189;-72
2023/05/24 07:14:00;;;;;;;7.80;3.63;;;;;;;23.27;52.98;96823.88;5006083;28;20201;-71
2023/05/24 07:16:27;;;;;;;7.03;3.80;;;;;;;23.44;52.02;96820.41;5005286;28;20351;-71
2023/05/24 07:18:54;;;;;;;8.13;4.00;;;;;;;23.57;51.68;96815.56;5006532;28;20222;-72
2023/05/24 07:21:21;;;;;;;8.13;4.20;;;;;;;23.92;50.24;96820.72;5005093;28;20210;-73
2023/05/24 07:23:50;;;;;;;7.10;4.60;;;;;;;24.19;49.25;96828.47;5006329;28;20249;-72
2023/05/24 07:26:17;;;;;;;6.00;3.87;;;;;;;24.39;49.08;96830.84;5005511;28;20765;-71
2023/05/24 07:28:47;;;;;;;7.23;4.23;;;;;;;24.40;48.00;96829.88;5021717;28;20213;-72
2023/05/24 07:31:15;;;;;;;4.33;3.57;;;;;;;24.23;47.68;96821.84;4976607;28;20203;-70
2023/05/24 07:33:42;;;;;;;5.53;3.73;;;;;;;24.14;48.29;96819.34;5009360;28;20200;-71
2023/05/24 07:36:09;;;;;;;8.93;4.40;;;;;;;24.19;48.65;96809.13;5009944;28;20802;-70
2023/05/24 07:38:37;;;;;;;4.63;4.20;;;;;;;24.23;48.85;96826.34;5023763;28;20818;-71
2023/05/24 07:41:07;;;;;;;6.53;4.43;;;;;;;24.38;47.46;96832.66;4992597;28;20594;-74
2023/05/24 07:43:36;;;;;;;6.57;3.97;;;;;;;24.47;48.39;96828.22;5008826;28;20199;-72
2023/05/24 07:46:03;;;;;;;12.57;6.40;;;;;;;24.73;47.35;96827.19;5024880;28;20201;-72
2023/05/24 07:48:30;;;;;;;11.80;5.87;;;;;;;24.82;47.28;96828.03;5009272;28;20204;-75
2023/05/24 07:50:58;;;;;;;3.63;3.30;;;;;;;24.78;47.00;96834.63;4991535;28;20196;-73
2023/05/24 07:53:25;;;;;;;5.80;4.13;;;;;;;24.88;46.88;96830.84;5024760;28;20196;-76
2023/05/24 07:55:52;;;;;;;5.30;3.60;;;;;;;24.88;47.00;96833.50;5006947;28;20229;-77
2023/05/24 07:58:20;;;;;;;8.60;4.30;;;;;;;25.15;47.12;96831.53;5010163;28;20279;-77
2023/05/24 08:00:47;;;;;;;5.37;4.20;;;;;;;25.24;47.73;96827.91;5007144;28;20197;-77
2023/05/24 08:03:17;;;;;;;4.73;3.90;;;;;;;25.28;46.26;96824.75;5010195;28;20708;-76
2023/05/24 08:05:44;;;;;;;7.03;3.87;;;;;;;25.29;44.81;96822.91;5008919;28;20237;-71
2023/05/24 08:08:12;;;;;;;5.27;4.10;;;;;;;25.47;44.07;96828.94;5024221;28;20206;-71
2023/05/24 08:10:40;;;;;;;8.20;4.20;;;;;;;25.67;43.29;96827.56;4992101;28;20208;-72
2023/05/24 08:13:07;;;;;;;4.27;3.23;;;;;;;25.77;41.90;96823.75;5008533;28;20288;-70
2023/05/24 08:15:34;;;;;;;7.27;4.07;;;;;;;25.77;42.06;96830.88;5009454;28;20729;-70
2023/05/24 08:18:01;;;;;;;5.83;3.53;;;;;;;25.51;42.42;96825.75;5008262;28;20230;-71
2023/05/24 08:20:28;;;;;;;4.90;4.23;;;;;;;25.48;43.27;96823.44;5007685;28;20589;-71
2023/05/24 08:22:55;;;;;;;8.50;4.23;;;;;;;25.44;43.78;96816.81;5008283;28;20249;-73
2023/05/24 08:25:22;;;;;;;8.53;3.53;;;;;;;25.58;42.91;96829.41;5009155;28;20677;-74
2023/05/24 08:27:50;;;;;;;6.00;3.60;;;;;;;25.50;43.54;96821.47;5009017;28;20289;-70
2023/05/24 08:30:58;;;;;;;6.13;3.90;;;;;;;25.55;43.42;96828.91;5008155;28;20191;-71
2023/05/24 08:34:19;;;;;;;6.67;3.63;;;;;;;25.62;42.79;96821.94;5007520;28;20645;-71
2023/05/24 08:37:40;;;;;;;4.07;3.50;;;;;;;25.15;43.24;96824.41;5008713;28;20234;-71
2023/05/24 08:41:00;;;;;;;5.23;3.43;;;;;;;25.37;43.22;96818.44;5021615;28;20213;-72
2023/05/24 08:44:22;;;;;;;6.10;3.90;;;;;;;25.26;44.15;96820.63;5004805;28;20642;-75
2023/05/24 08:47:03;;;;;;;6.63;3.77;;;;;;;25.49;42.90;96822.44;4987506;28;20201;-70
2023/05/24 08:49:32;;;;;;;7.20;5.90;;;;;;;25.66;42.83;96816.13;4987622;28;20681;-71
2023/05/24 08:52:00;;;;;;;5.80;4.17;;;;;;;25.81;42.58;96830.38;4986524;28;20204;-72
2023/05/24 08:54:29;;;;;;;4.77;3.63;;;;;;;25.99;41.68;96818.72;5003946;28;20203;-71
2023/05/24 08:56:57;;;;;;;9.27;4.13;;;;;;;25.56;42.19;96830.56;4987675;28;20333;-73
2023/05/24 08:59:24;;;;;;;4.83;3.50;;;;;;;25.63;42.10;96831.56;4987711;28;20208;-72
2023/05/24 09:01:53;;;;;;;5.43;3.37;;;;;;;25.41;43.23;96834.91;4998264;28;20694;-71
2023/05/24 09:04:22;;;;;;;8.13;3.90;;;;;;;25.71;43.09;96829.72;5005280;28;20198;-74
2023/05/24 09:06:51;;;;;;;6.63;3.50;;;;;;;25.62;42.21;96814.81;4988843;28;20198;-70
2023/05/24 09:09:20;;;;;;;3.77;3.47;;;;;;;25.60;42.65;96827.41;4982693;28;20245;-75
2023/05/24 09:11:52;;;;;;;4.00;3.57;;;;;;;25.69;41.66;96836.19;5006842;28;20591;-72
2023/05/24 09:14:19;;;;;;;4.27;3.70;;;;;;;25.38;41.69;96833.38;5022070;28;20283;-75
2023/05/24 09:16:46;;;;;;;3.97;3.50;;;;;;;25.32;42.33;96823.44;5023495;28;20256;-71
2023/05/24 09:19:15;;;;;;;5.43;3.80;;;;;;;25.21;42.33;96828.22;5007285;28;20340;-73
2023/05/24 09:21:42;;;;;;;4.20;3.20;;;;;;;24.62;43.66;96831.94;5006092;28;20191;-71
2023/05/24 09:24:10;;;;;;;6.20;3.10;;;;;;;23.96;42.95;96837.09;4990346;28;20265;-72
2023/05/24 09:26:37;;;;;;;4.40;3.60;;;;;;;24.14;43.32;96838.72;5007344;28;20200;-71
2023/05/24 09:29:08;;;;;;;4.90;3.47;;;;;;;24.52;42.17;96840.03;5023960;28;20210;-73
2023/05/24 09:31:36;;;;;;;4.70;3.77;;;;;;;24.89;42.14;96831.69;5006888;28;20283;-70
2023/05/24 09:34:09;;;;;;;6.17;3.23;;;;;;;24.74;41.17;96828.00;5008106;28;20669;-70
2023/05/24 09:36:41;;;;;;;4.07;3.40;;;;;;;25.00;40.43;96828.72;5005659;28;20311;-70
2023/05/24 09:39:09;;;;;;;4.90;4.40;;;;;;;25.49;40.40;96825.09;5007702;28;20194;-72
2023/05/24 09:41:37;;;;;;;9.50;3.80;;;;;;;25.10;39.40;96828.56;5007771;28;20609;-72
2023/05/24 09:44:04;;;;;;;3.30;3.00;;;;;;;25.00;39.36;96839.31;5021896;28;20270;-70
2023/05/24 09:46:37;;;;;;;3.97;3.27;;;;;;;24.88;39.52;96830.03;5007676;28;20198;-72
2023/05/24 09:49:06;;;;;;;3.77;3.40;;;;;;;24.51;40.23;96826.91;5006492;28;20578;-73
2023/05/24 09:51:37;;;;;;;3.53;3.10;;;;;;;24.79;42.93;96839.78;5005923;28;20201;-75
2023/05/24 09:54:05;;;;;;;5.63;3.60;;;;;;;24.85;43.53;96830.38;5006664;28;20204;-74
2023/05/24 09:56:33;;;;;;;5.93;3.43;;;;;;;25.15;42.28;96824.41;5006897;28;20239;-70
2023/05/24 09:59:08;;;;;;;4.33;3.20;;;;;;;25.03;42.00;96823.94;5006511;28;20203;-77
2023/05/24 10:01:36;;;;;;;4.30;3.50;;;;;;;25.23;43.07;96821.78;5006403;28;20201;-70
2023/05/24 10:04:05;;;;;;;5.60;3.30;;;;;;;25.48;41.46;96828.75;5007505;28;20207;-72
2023/05/24 10:06:41;;;;;;;6.00;3.43;;;;;;;25.54;40.88;96817.47;5004916;28;20209;-71
2023/05/24 10:09:09;;;;;;;6.93;3.63;;;;;;;25.84;40.78;96821.25;5005903;28;20712;-73
2023/05/24 10:11:37;;;;;;;5.47;3.40;;;;;;;25.53;41.92;96823.75;5005071;28;20205;-69
2023/05/24 10:14:06;;;;;;;6.13;3.67;;;;;;;25.34;41.96;96810.84;5004083;28;20263;-71
2023/05/24 10:16:33;;;;;;;5.07;3.77;;;;;;;25.71;41.25;96808.50;5021897;28;20233;-72
2023/05/24 10:19:00;;;;;;;7.33;3.53;;;;;;;25.81;40.18;96810.97;5005831;28;20535;-74
2023/05/24 10:21:30;;;;;;;9.43;3.63;;;;;;;25.76;41.05;96816.75;5022047;28;20702;-73
2023/05/24 10:24:01;;;;;;;4.33;3.10;;;;;;;25.57;41.59;96816.31;5006088;28;20281;-76
2023/05/24 10:26:31;;;;;;;4.60;3.47;;;;;;;25.64;41.51;96810.16;5005678;28;20205;-74
2023/05/24 10:29:06;;;;;;;6.60;3.13;;;;;;;25.82;41.24;96810.78;5021470;28;20206;-69
2023/05/24 10:31:40;;;;;;;5.33;3.50;;;;;;;25.58;42.19;96818.78;5021286;28;20200;-74
2023/05/24 10:34:09;;;;;;;5.10;3.17;;;;;;;25.36;42.56;96800.91;5007241;28;20194;-72
2023/05/24 10:36:42;;;;;;;4.17;3.50;;;;;;;25.19;41.33;96806.34;5004475;28;20235;-70
2023/05/24 10:39:11;;;;;;;4.73;3.47;;;;;;;25.30;40.19;96809.53;5007384;28;20241;-71
2023/05/24 10:41:40;;;;;;;4.10;3.03;;;;;;;25.13;40.93;96801.72;5006036;28;20197;-72
2023/05/24 10:44:12;;;;;;;5.00;3.40;;;;;;;24.91;41.70;96801.41;5005086;28;20292;-69
2023/05/24 10:47:12;;;;;;;4.30;2.93;;;;;;;25.31;39.15;96797.91;5007236;28;20579;-70
2023/05/24 10:49:52;;;;;;;3.60;3.03;;;;;;;25.27;37.87;96793.94;5005656;28;20208;-72
2023/05/24 10:52:20;;;;;;;4.20;2.90;;;;;;;25.03;39.78;96791.28;5005482;28;20204;-70
2023/05/24 10:55:04;;;;;;;5.10;3.33;;;;;;;25.30;39.02;96785.66;5005980;28;20378;-71
2023/05/24 10:57:32;;;;;;;4.57;3.13;;;;;;;25.51;37.81;96790.47;5004810;28;20324;-74
2023/05/24 11:00:27;;;;;;;3.87;2.70;;;;;;;25.88;36.96;96779.25;5007717;28;20245;-74
2023/05/24 11:03:00;;;;;;;4.10;2.90;;;;;;;25.83;37.08;96770.00;5020751;28;20201;-72
2023/05/24 11:05:35;;;;;;;5.30;3.27;;;;;;;25.86;37.41;96768.00;5005947;28;20647;-76
2023/05/24 11:08:05;;;;;;;5.53;3.40;;;;;;;25.96;38.28;96777.41;5006525;28;20190;-73
2023/05/24 11:10:34;;;;;;;3.20;2.90;;;;;;;25.94;39.51;96786.53;5006001;28;20644;-79
2023/05/24 11:13:02;;;;;;;6.33;2.90;;;;;;;25.72;39.32;96782.78;5006941;28;20193;-71
2023/05/24 11:15:29;;;;;;;5.60;3.17;;;;;;;25.52;39.49;96777.03;5005639;28;20573;-72
2023/05/24 11:18:11;;;;;;;3.57;2.87;;;;;;;26.00;38.68;96778.72;5006880;28;20329;-72
2023/05/24 11:20:48;;;;;;;5.90;3.27;;;;;;;26.10;37.65;96759.97;5004686;28;20264;-69
2023/05/24 11:23:16;;;;;;;4.57;3.00;;;;;;;25.69;36.82;96783.97;5004920;28;20202;-72
2023/05/24 11:25:45;;;;;;;7.27;3.67;;;;;;;25.48;36.57;96775.72;5006408;28;20194;-72
2023/05/24 11:28:13;;;;;;;6.03;2.90;;;;;;;25.61;37.45;96748.66;5005791;28;20291;-70
2023/05/24 11:30:41;;;;;;;4.40;3.10;;;;;;;25.53;40.65;96785.81;5006888;28;20624;-70
2023/05/24 11:33:18;;;;;;;3.43;2.87;;;;;;;24.95;41.20;96778.88;5005613;28;20580;-71
2023/05/24 11:35:46;;;;;;;3.70;3.30;;;;;;;24.94;41.38;96773.72;5005121;28;20200;-71
2023/05/24 11:38:14;;;;;;;5.83;3.17;;;;;;;25.27;40.96;96770.06;5020953;28;20232;-71
2023/05/24 11:40:43;;;;;;;4.00;3.13;;;;;;;25.72;41.20;96772.16;5005844;28;20195;-71
2023/05/24 11:43:15;;;;;;;5.00;2.87;;;;;;;26.06;39.79;96769.25;5006359;28;20599;-72
2023/05/24 11:45:48;;;;;;;4.33;3.20;;;;;;;26.06;39.73;96759.47;5005032;28;20190;-71
2023/05/24 11:48:17;;;;;;;3.43;3.10;;;;;;;26.40;38.70;96765.28;5006377;28;20238;-71
2023/05/24 11:50:47;;;;;;;8.30;3.33;;;;;;;25.71;40.55;96758.09;5005221;28;20260;-72
2023/05/24 11:53:19;;;;;;;3.20;2.90;;;;;;;25.99;38.26;96752.38;5006372;28;20646;-71
2023/05/24 11:55:47;;;;;;;4.87;3.10;;;;;;;26.40;37.93;96761.78;5006001;28;20237;-70
2023/05/24 11:58:41;;;;;;;4.27;3.00;;;;;;;26.49;37.86;96750.97;5005578;28;20292;-70
2023/05/24 12:01:22;;;;;;;4.37;3.00;;;;;;;26.03;38.00;96751.03;5005200;28;20749;-70
2023/05/24 12:03:52;;;;;;;4.83;3.37;;;;;;;25.56;39.84;96745.69;5020583;28;20200;-75
2023/05/24 12:06:20;;;;;;;5.43;3.13;;;;;;;25.05;38.38;96749.56;5006229;28;20600;-71
2023/05/24 12:08:48;;;;;;;2.90;2.60;;;;;;;24.81;39.17;96749.56;5004950;28;20256;-73
2023/05/24 12:11:16;;;;;;;3.73;3.10;;;;;;;24.87;40.78;96754.19;5005531;28;20205;-70
2023/05/24 12:13:43;;;;;;;4.87;3.33;;;;;;;24.89;39.63;96721.22;5005220;28;20220;-71
2023/05/24 12:16:12;;;;;;;4.73;2.87;;;;;;;25.15;38.20;96742.25;5007583;28;20196;-72
2023/05/24 12:18:39;;;;;;;5.27;3.13;;;;;;;25.67;38.28;96738.22;5009953;28;20192;-72
2023/05/24 12:21:21;;;;;;;5.90;3.47;;;;;;;25.94;37.93;96736.13;5009090;28;20195;-72
2023/05/24 12:23:48;;;;;;;3.80;3.13;;;;;;;26.12;36.14;96726.09;5009260;28;20294;-73
2023/05/24 12:26:21;;;;;;;4.53;2.83;;;;;;;26.35;35.95;96737.59;5024794;28;20230;-71
2023/05/24 12:28:53;;;;;;;3.83;3.17;;;;;;;26.47;37.12;96739.69;5007411;28;20204;-76
2023/05/24 12:31:20;;;;;;;4.03;3.10;;;;;;;26.67;35.34;96748.00;5009803;28;20198;-72
2023/05/24 12:33:48;;;;;;;5.43;3.20;;;;;;;26.83;37.36;96745.25;5007107;28;20627;-74
2023/05/24 12:36:18;;;;;;;6.07;4.00;;;;;;;26.89;44.31;96725.13;5008258;28;20504;-72
2023/05/24 12:38:45;;;;;;;7.97;4.43;;;;;;;26.05;46.60;96743.72;5008780;28;20258;-75
2023/05/24 12:41:13;;;;;;;3.73;3.33;;;;;;;25.57;49.32;96739.41;5009081;28;20193;-71
2023/05/24 12:43:43;;;;;;;6.47;3.50;;;;;;;25.84;48.95;96729.19;5009274;28;20197;-75
2023/05/24 12:46:10;;;;;;;6.20;3.47;;;;;;;25.67;49.03;96724.94;5008144;28;20285;-76
2023/05/24 12:48:38;;;;;;;6.50;3.73;;;;;;;25.62;49.24;96735.22;5024502;28;20206;-73
2023/05/24 12:51:07;;;;;;;4.43;3.93;;;;;;;25.53;49.31;96738.88;5007677;28;20202;-75
2023/05/24 12:53:34;;;;;;;4.47;3.77;;;;;;;24.69;51.81;96745.53;5010486;28;20233;-76
2023/05/24 12:56:01;;;;;;;5.03;3.37;;;;;;;24.77;52.07;96754.34;5007231;28;20231;-76
2023/05/24 12:58:29;;;;;;;4.90;3.70;;;;;;;24.79;51.53;96756.84;5008978;28;20228;-77
2023/05/24 13:00:56;;;;;;;6.70;3.33;;;;;;;24.58;52.04;96748.50;5009131;28;20222;-72
2023/05/24 13:03:23;;;;;;;5.33;3.57;;;;;;;24.79;52.12;96752.34;5008111;28;20216;-73
2023/05/24 13:05:51;;;;;;;5.20;3.30;;;;;;;24.63;51.67;96748.81;4991518;28;20304;-75